createdAt,value
2022-12-05T00:01:16.289Z,18.17
2022-12-05T00:03:42.509Z,18.05
2022-12-05T00:06:08.692Z,19.63
2022-12-05T00:08:34.880Z,19.67
2022-12-05T00:11:01.047Z,17.98
2022-12-05T00:13:27.236Z,16.13
2022-12-05T00:15:53.423Z,17.30
2022-12-05T00:18:19.574Z,18.42
2022-12-05T00:20:45.729Z,15.10
2022-12-05T00:23:11.846Z,17.90
2022-12-05T00:25:38.023Z,16.30
2022-12-05T00:28:04.232Z,16.65
2022-12-05T00:30:30.423Z,17.45
2022-12-05T00:32:56.598Z,16.90
2022-12-05T00:35:22.727Z,16.48
2022-12-05T00:37:48.883Z,17.08
2022-12-05T00:40:15.049Z,17.42
2022-12-05T00:42:41.164Z,16.35
2022-12-05T00:45:07.347Z,17.63
2022-12-05T00:47:33.514Z,17.25
2022-12-05T00:49:59.946Z,17.65
2022-12-05T00:52:26.275Z,16.80
2022-12-05T00:54:52.437Z,17.17
2022-12-05T00:57:18.661Z,16.13
2022-12-05T00:59:44.830Z,16.48
2022-12-05T01:02:10.949Z,17.38
2022-12-05T01:04:37.087Z,15.50
2022-12-05T01:07:03.266Z,17.20
2022-12-05T01:09:29.432Z,15.82
2022-12-05T01:11:55.586Z,16.63
2022-12-05T01:14:21.717Z,17.20
2022-12-05T01:16:47.983Z,17.25
2022-12-05T01:19:14.230Z,17.85
2022-12-05T01:21:40.349Z,16.40
2022-12-05T01:24:06.601Z,18.90
2022-12-05T01:26:32.800Z,16.23
2022-12-05T01:28:59.038Z,17.25
2022-12-05T01:31:25.295Z,17.77
2022-12-05T01:33:51.535Z,17.63
2022-12-05T01:36:17.715Z,18.00
2022-12-05T01:38:43.895Z,17.23
2022-12-05T01:41:10.059Z,18.27
2022-12-05T01:43:36.244Z,17.17
2022-12-05T01:46:02.483Z,17.77
2022-12-05T01:48:28.711Z,18.13
2022-12-05T01:50:54.910Z,16.85
2022-12-05T01:53:21.066Z,17.23
2022-12-05T01:55:47.189Z,17.67
2022-12-05T01:58:13.363Z,16.92
2022-12-05T02:00:39.557Z,17.27
2022-12-05T02:03:05.717Z,17.42
2022-12-05T02:05:31.885Z,15.98
2022-12-05T02:07:58.059Z,16.65
2022-12-05T02:10:24.227Z,15.38
2022-12-05T02:12:50.387Z,14.52
2022-12-05T02:15:16.556Z,17.75
2022-12-05T02:17:42.739Z,17.05
2022-12-05T02:20:08.881Z,17.45
2022-12-05T02:22:35.059Z,16.70
2022-12-05T02:25:01.192Z,17.45
2022-12-05T02:27:27.332Z,17.38
2022-12-05T02:29:53.512Z,18.20
2022-12-05T02:32:19.634Z,17.33
2022-12-05T02:34:45.814Z,16.23
2022-12-05T02:37:11.964Z,17.83
2022-12-05T02:39:38.092Z,17.40
2022-12-05T02:42:04.290Z,17.52
2022-12-05T02:44:30.442Z,17.33
2022-12-05T02:46:56.656Z,18.42
2022-12-05T02:49:22.809Z,17.35
2022-12-05T02:51:48.928Z,17.52
2022-12-05T02:54:15.047Z,17.80
2022-12-05T02:56:41.235Z,16.67
2022-12-05T02:59:07.424Z,17.95
2022-12-05T03:01:33.681Z,16.83
2022-12-05T03:04:00.011Z,17.60
2022-12-05T03:06:26.213Z,18.67
2022-12-05T03:08:52.325Z,16.60
2022-12-05T03:11:18.591Z,16.80
2022-12-05T03:13:44.902Z,16.55
2022-12-05T03:16:11.065Z,18.42
2022-12-05T03:18:37.202Z,17.30
2022-12-05T03:21:03.357Z,17.58
2022-12-05T03:23:29.465Z,17.05
2022-12-05T03:25:55.582Z,17.40
2022-12-05T03:28:21.718Z,19.20
2022-12-05T03:30:47.991Z,16.73
2022-12-05T03:33:14.183Z,17.08
2022-12-05T03:35:40.339Z,16.98
2022-12-05T03:38:06.484Z,17.95
2022-12-05T03:40:32.636Z,17.85
2022-12-05T03:42:58.797Z,16.05
2022-12-05T03:45:24.922Z,16.15
2022-12-05T03:47:51.081Z,16.73
2022-12-05T03:50:17.350Z,16.83
2022-12-05T03:53:17.439Z,15.65
2022-12-05T03:55:29.582Z,13.63
2022-12-05T03:57:55.728Z,14.07
2022-12-05T04:00:21.851Z,17.38
2022-12-05T04:02:48.021Z,15.70
2022-12-05T04:05:14.180Z,15.68
2022-12-05T04:07:40.437Z,16.88
2022-12-05T04:10:06.693Z,14.32
2022-12-05T04:12:32.983Z,16.02
2022-12-05T04:14:59.182Z,16.27
2022-12-05T04:17:25.321Z,15.95
2022-12-05T04:19:51.524Z,16.98
2022-12-05T04:22:17.706Z,15.40
2022-12-05T04:24:43.867Z,13.65
2022-12-05T04:27:10.012Z,14.13
2022-12-05T04:29:36.203Z,15.63
2022-12-05T04:32:02.352Z,17.52
2022-12-05T04:34:28.494Z,16.60
2022-12-05T04:36:54.660Z,15.20
2022-12-05T04:39:20.805Z,14.70
2022-12-05T04:41:47.000Z,15.02
2022-12-05T04:44:13.109Z,14.68
2022-12-05T04:46:39.383Z,15.27
2022-12-05T04:49:05.538Z,14.75
2022-12-05T04:51:31.665Z,14.48
2022-12-05T04:53:57.775Z,16.08
2022-12-05T04:56:23.952Z,14.85
2022-12-05T04:58:50.077Z,15.10
2022-12-05T05:01:16.268Z,14.75
2022-12-05T05:03:42.569Z,16.45
2022-12-05T05:06:08.709Z,15.60
2022-12-05T05:08:34.876Z,15.02
2022-12-05T05:11:01.000Z,15.27
2022-12-05T05:13:27.109Z,14.65
2022-12-05T05:15:53.322Z,15.20
2022-12-05T05:18:19.569Z,13.27
2022-12-05T05:20:45.729Z,15.07
2022-12-05T05:23:11.884Z,14.55
2022-12-05T05:25:38.038Z,15.50
2022-12-05T05:28:04.161Z,14.25
2022-12-05T05:30:30.354Z,15.57
2022-12-05T05:32:56.519Z,13.35
2022-12-05T05:35:22.706Z,14.23
2022-12-05T05:37:48.893Z,13.90
2022-12-05T05:40:15.047Z,15.82
2022-12-05T05:42:41.236Z,14.75
2022-12-05T05:45:07.364Z,15.88
2022-12-05T05:47:33.504Z,13.63
2022-12-05T05:50:00.012Z,14.57
2022-12-05T05:52:26.372Z,14.43
2022-12-05T05:54:52.532Z,12.75
2022-12-05T05:57:20.520Z,15.25
2022-12-05T05:59:46.913Z,13.95
2022-12-05T06:02:13.117Z,14.60
2022-12-05T06:04:39.218Z,13.82
2022-12-05T06:07:05.366Z,15.80
2022-12-05T06:09:31.473Z,16.40
2022-12-05T06:11:57.702Z,15.07
2022-12-05T06:14:23.894Z,13.95
2022-12-05T06:16:50.093Z,15.45
2022-12-05T06:19:16.294Z,14.15
2022-12-05T06:21:42.455Z,13.70
2022-12-05T06:24:08.654Z,13.52
2022-12-05T06:26:34.863Z,15.30
2022-12-05T06:29:01.047Z,16.00
2022-12-05T06:31:27.280Z,13.23
2022-12-05T06:33:53.510Z,12.88
2022-12-05T06:36:19.690Z,11.77
2022-12-05T06:38:45.858Z,12.70
2022-12-05T06:41:12.006Z,12.13
2022-12-05T06:43:38.147Z,13.63
2022-12-05T06:46:04.573Z,11.43
2022-12-05T06:48:30.800Z,13.57
2022-12-05T06:50:56.970Z,15.30
2022-12-05T06:53:27.242Z,15.35
2022-12-05T06:55:53.399Z,15.40
2022-12-05T06:58:19.579Z,14.60
2022-12-05T07:00:45.809Z,12.50
2022-12-05T07:03:12.030Z,14.77
2022-12-05T07:05:38.216Z,15.70
2022-12-05T07:08:04.386Z,14.50
2022-12-05T07:10:30.607Z,15.13
2022-12-05T07:12:56.851Z,13.68
2022-12-05T07:15:22.999Z,14.88
2022-12-05T07:17:49.140Z,13.90
2022-12-05T07:20:15.303Z,14.35
2022-12-05T07:22:44.551Z,13.73
2022-12-05T07:25:10.710Z,14.38
2022-12-05T07:27:36.895Z,14.85
2022-12-05T07:30:03.089Z,14.40
2022-12-05T07:32:29.234Z,14.70
2022-12-05T07:34:55.857Z,16.70
2022-12-05T07:37:22.068Z,13.55
2022-12-05T07:39:48.634Z,13.93
2022-12-05T07:42:14.856Z,15.32
2022-12-05T07:44:41.028Z,14.95
2022-12-05T07:47:07.231Z,14.48
2022-12-05T07:49:33.433Z,14.63
2022-12-05T07:51:59.632Z,14.57
2022-12-05T07:54:25.763Z,13.85
2022-12-05T07:56:51.914Z,15.45
2022-12-05T07:59:18.054Z,13.75
2022-12-05T08:01:44.246Z,14.48
2022-12-05T08:04:15.068Z,13.93
2022-12-05T08:06:41.845Z,14.65
2022-12-05T08:09:08.066Z,14.00
2022-12-05T08:11:34.245Z,16.08
2022-12-05T08:14:00.475Z,14.30
2022-12-05T08:16:26.698Z,13.95
2022-12-05T08:18:52.847Z,13.73
2022-12-05T08:21:19.019Z,14.57
2022-12-05T08:23:45.137Z,14.70
2022-12-05T08:26:11.300Z,14.63
2022-12-05T08:28:37.524Z,15.07
2022-12-05T08:31:05.589Z,13.82
2022-12-05T08:33:31.911Z,14.38
2022-12-05T08:35:58.126Z,13.85
2022-12-05T08:38:24.346Z,14.02
2022-12-05T08:40:50.512Z,12.88
2022-12-05T08:43:16.734Z,14.75
2022-12-05T08:45:43.032Z,15.18
2022-12-05T08:48:10.119Z,13.75
2022-12-05T08:50:36.325Z,12.32
2022-12-05T08:53:02.533Z,13.65
2022-12-05T08:55:28.778Z,13.77
2022-12-05T08:57:54.924Z,14.35
2022-12-05T09:00:21.118Z,13.27
2022-12-05T09:02:47.324Z,14.50
2022-12-05T09:05:27.086Z,12.63
2022-12-05T09:07:54.356Z,13.75
2022-12-05T09:10:20.545Z,14.70
2022-12-05T09:12:46.701Z,12.23
2022-12-05T09:15:12.917Z,13.63
2022-12-05T09:17:39.087Z,14.35
2022-12-05T09:20:05.336Z,13.43
2022-12-05T09:22:31.513Z,13.95
2022-12-05T09:24:57.933Z,13.73
2022-12-05T09:27:24.344Z,14.68
2022-12-05T09:29:50.609Z,12.40
2022-12-05T09:32:17.006Z,14.15
2022-12-05T09:34:43.239Z,13.13
2022-12-05T09:37:30.986Z,13.82
2022-12-05T09:39:55.657Z,13.43
2022-12-05T09:42:21.858Z,11.65
2022-12-05T09:44:48.045Z,12.77
2022-12-05T09:47:14.190Z,12.07
2022-12-05T09:49:40.417Z,12.63
2022-12-05T09:52:06.644Z,13.35
2022-12-05T09:54:32.825Z,12.82
2022-12-05T09:56:59.018Z,13.98
2022-12-05T09:59:25.198Z,14.07
2022-12-05T10:01:51.454Z,13.05
2022-12-05T10:04:17.763Z,13.00
2022-12-05T10:06:43.987Z,12.18
2022-12-05T10:09:10.235Z,13.80
2022-12-05T10:11:36.550Z,13.48
2022-12-05T10:14:02.739Z,12.90
2022-12-05T10:16:29.062Z,12.85
2022-12-05T10:18:55.330Z,12.50
2022-12-05T10:21:21.487Z,13.48
2022-12-05T10:23:57.514Z,12.45
2022-12-05T10:26:24.377Z,12.38
2022-12-05T10:28:50.587Z,13.25
2022-12-05T10:31:16.783Z,12.90
2022-12-05T10:33:43.053Z,12.57
2022-12-05T10:36:13.466Z,13.25
2022-12-05T10:38:39.659Z,13.05
2022-12-05T10:41:05.827Z,13.07
2022-12-05T10:43:34.840Z,12.60
2022-12-05T10:46:01.139Z,12.82
2022-12-05T10:48:27.446Z,13.05
2022-12-05T10:50:53.589Z,12.98
2022-12-05T10:53:19.797Z,13.00
2022-12-05T10:56:06.454Z,12.63
2022-12-05T10:58:32.118Z,12.90
2022-12-05T11:00:58.318Z,13.38
2022-12-05T11:03:24.700Z,12.90
2022-12-05T11:05:50.932Z,12.68
2022-12-05T11:08:17.166Z,12.65
2022-12-05T11:10:43.386Z,13.18
2022-12-05T11:13:09.621Z,13.23
2022-12-05T11:15:35.788Z,12.07
2022-12-05T11:18:01.971Z,11.88
2022-12-05T11:20:28.132Z,12.88
2022-12-05T11:22:54.314Z,12.43
2022-12-05T11:25:20.492Z,12.45
2022-12-05T11:27:46.698Z,12.77
2022-12-05T11:30:12.833Z,12.18
2022-12-05T11:32:39.035Z,13.40
2022-12-05T11:35:05.186Z,12.50
2022-12-05T11:37:31.382Z,12.15
2022-12-05T11:39:57.505Z,12.77
2022-12-05T11:42:23.672Z,8.32
2022-12-05T11:44:49.808Z,12.32
2022-12-05T11:47:16.061Z,12.32
2022-12-05T11:49:42.295Z,13.63
2022-12-05T11:52:10.517Z,12.90
2022-12-05T11:55:03.802Z,12.88
2022-12-05T11:57:22.772Z,12.27
2022-12-05T11:59:48.907Z,13.70
2022-12-05T12:02:15.082Z,13.23
2022-12-05T12:04:41.347Z,14.07
2022-12-05T12:07:07.550Z,14.80
2022-12-05T12:09:33.790Z,13.98
2022-12-05T12:11:59.973Z,13.20
2022-12-05T12:14:26.167Z,9.73
2022-12-05T12:16:52.385Z,14.02
2022-12-05T12:19:18.619Z,13.40
2022-12-05T12:21:45.863Z,12.57
2022-12-05T12:24:12.005Z,13.85
2022-12-05T12:26:38.189Z,13.15
2022-12-05T12:29:04.317Z,14.07
2022-12-05T12:31:30.599Z,12.60
2022-12-05T12:33:56.820Z,14.63
2022-12-05T12:36:23.025Z,12.68
2022-12-05T12:38:51.751Z,12.13
2022-12-05T12:41:20.684Z,13.40
2022-12-05T12:43:54.749Z,13.15
2022-12-05T12:46:21.132Z,12.95
2022-12-05T12:48:47.301Z,13.55
2022-12-05T12:51:13.444Z,13.93
2022-12-05T12:53:39.694Z,12.65
2022-12-05T12:56:05.844Z,11.55
2022-12-05T12:58:32.016Z,11.52
2022-12-05T13:00:59.308Z,11.75
2022-12-05T13:03:25.590Z,11.90
2022-12-05T13:05:52.226Z,11.38
2022-12-05T13:08:18.478Z,11.75
2022-12-05T13:10:44.771Z,12.07
2022-12-05T13:13:10.918Z,9.52
2022-12-05T13:15:37.075Z,11.13
2022-12-05T13:18:03.284Z,12.18
2022-12-05T13:20:29.446Z,11.63
2022-12-05T13:23:03.131Z,9.95
2022-12-05T13:25:32.446Z,11.52
2022-12-05T13:27:58.651Z,10.88
2022-12-05T13:30:27.755Z,12.02
2022-12-05T13:32:57.037Z,10.63
2022-12-05T13:35:23.164Z,11.75
2022-12-05T13:37:49.339Z,11.98
2022-12-05T13:40:15.465Z,11.45
2022-12-05T13:42:41.639Z,12.68
2022-12-05T13:45:07.774Z,11.38
2022-12-05T13:47:34.026Z,9.63
2022-12-05T13:50:00.451Z,11.25
2022-12-05T13:52:27.015Z,11.73
2022-12-05T13:54:53.474Z,11.55
2022-12-05T13:57:19.759Z,9.35
2022-12-05T13:59:46.118Z,10.63
2022-12-05T14:02:12.333Z,14.65
2022-12-05T14:04:38.604Z,14.40
2022-12-05T14:07:07.953Z,10.48
2022-12-05T14:09:34.161Z,7.65
2022-12-05T14:12:00.342Z,6.72
2022-12-05T14:14:26.525Z,5.35
2022-12-05T14:16:52.824Z,5.00
2022-12-05T14:19:19.054Z,5.70
2022-12-05T14:21:45.228Z,4.43
2022-12-05T14:24:11.376Z,4.25
2022-12-05T14:26:37.506Z,6.32
2022-12-05T14:29:03.688Z,3.53
2022-12-05T14:31:29.858Z,2.90
2022-12-05T14:33:55.976Z,4.82
2022-12-05T14:36:22.123Z,5.60
2022-12-05T14:38:48.314Z,4.45
2022-12-05T14:41:14.518Z,3.08
2022-12-05T14:43:40.728Z,2.92
2022-12-05T14:46:06.992Z,2.90
2022-12-05T14:48:34.963Z,2.97
2022-12-05T14:51:01.207Z,2.88
2022-12-05T14:53:27.434Z,2.40
2022-12-05T14:55:53.621Z,4.30
2022-12-05T14:58:19.779Z,4.40
2022-12-05T15:00:48.184Z,3.47
2022-12-05T15:03:14.674Z,3.42
2022-12-05T15:05:40.846Z,3.25
2022-12-05T15:08:07.105Z,2.92
2022-12-05T15:10:33.318Z,4.60
2022-12-05T15:12:59.503Z,3.90
2022-12-05T15:15:25.741Z,2.95
2022-12-05T15:17:51.936Z,3.88
2022-12-05T15:20:18.083Z,2.40
2022-12-05T15:22:44.341Z,4.07
2022-12-05T15:25:10.575Z,3.38
2022-12-05T15:27:36.783Z,2.58
2022-12-05T15:30:02.959Z,2.58
2022-12-05T15:32:29.110Z,3.17
2022-12-05T15:34:55.353Z,3.45
2022-12-05T15:37:21.639Z,2.83
2022-12-05T15:39:47.874Z,2.22
2022-12-05T15:42:14.051Z,2.80
2022-12-05T15:44:40.198Z,2.75
2022-12-05T15:47:06.417Z,2.75
2022-12-05T15:49:32.599Z,2.75
2022-12-05T15:51:58.954Z,2.92
2022-12-05T15:54:29.081Z,2.83
2022-12-05T15:56:55.592Z,2.75
2022-12-05T15:59:21.856Z,2.85
2022-12-05T16:01:48.117Z,3.78
2022-12-05T16:04:14.419Z,3.40
2022-12-05T16:06:41.665Z,2.95
2022-12-05T16:09:11.609Z,3.22
2022-12-05T16:11:38.111Z,2.55
2022-12-05T16:14:04.260Z,2.80
2022-12-05T16:16:30.541Z,2.75
2022-12-05T16:18:56.737Z,2.47
2022-12-05T16:21:22.915Z,2.15
2022-12-05T16:23:49.049Z,2.05
2022-12-05T16:26:15.272Z,2.85
2022-12-05T16:28:41.446Z,2.47
2022-12-05T16:31:07.651Z,2.60
2022-12-05T16:33:36.548Z,3.10
2022-12-05T16:36:05.084Z,3.17
2022-12-05T16:38:31.259Z,2.40
2022-12-05T16:40:57.381Z,2.80
2022-12-05T16:43:23.576Z,5.68
2022-12-05T16:45:49.772Z,10.32
2022-12-05T16:48:16.027Z,5.22
2022-12-05T16:50:42.183Z,4.80
2022-12-05T16:53:08.332Z,3.00
2022-12-05T16:55:37.169Z,7.03
2022-12-05T16:58:03.584Z,5.38
2022-12-05T17:00:29.726Z,3.08
2022-12-05T17:03:12.141Z,2.80
2022-12-05T17:05:42.018Z,2.35
2022-12-05T17:08:08.266Z,2.45
2022-12-05T17:10:34.492Z,2.13
2022-12-05T17:13:00.665Z,2.00
2022-12-05T17:15:26.797Z,1.90
2022-12-05T17:17:52.951Z,1.90
2022-12-05T17:20:19.119Z,1.75
2022-12-05T17:22:45.269Z,2.08
2022-12-05T17:25:11.391Z,2.00
2022-12-05T17:27:37.612Z,2.10
2022-12-05T17:30:03.806Z,2.15
2022-12-05T17:32:29.953Z,1.98
2022-12-05T17:34:56.130Z,2.08
2022-12-05T17:37:22.268Z,2.08
2022-12-05T17:39:48.395Z,2.20
2022-12-05T17:42:14.544Z,1.85
2022-12-05T17:44:40.864Z,2.38
2022-12-05T17:47:08.277Z,2.40
2022-12-05T17:49:34.695Z,5.93
2022-12-05T17:52:21.121Z,2.95
2022-12-05T17:54:47.024Z,3.30
2022-12-05T17:57:13.220Z,2.63
2022-12-05T17:59:39.607Z,4.13
2022-12-05T18:02:06.029Z,1.90
2022-12-05T18:04:32.312Z,2.15
2022-12-05T18:06:58.529Z,2.53
2022-12-05T18:09:24.916Z,2.40
2022-12-05T18:11:51.118Z,2.70
2022-12-05T18:14:17.326Z,2.60
2022-12-05T18:16:43.641Z,4.70
2022-12-05T18:19:09.973Z,8.52
2022-12-05T18:21:36.197Z,4.32
2022-12-05T18:24:02.373Z,4.70
2022-12-05T18:26:28.625Z,4.95
2022-12-05T18:28:54.801Z,4.53
2022-12-05T18:31:21.027Z,3.92
2022-12-05T18:33:47.304Z,3.10
2022-12-05T18:36:13.524Z,3.70
2022-12-05T18:38:39.664Z,3.67
2022-12-05T18:41:05.851Z,3.55
2022-12-05T18:43:32.071Z,4.38
2022-12-05T18:45:58.341Z,6.10
2022-12-05T18:48:38.752Z,5.50
2022-12-05T18:51:06.885Z,5.45
2022-12-05T18:53:33.043Z,3.10
2022-12-05T18:56:20.849Z,3.00
2022-12-05T18:58:46.597Z,3.78
2022-12-05T19:01:12.846Z,2.72
2022-12-05T19:03:39.320Z,3.17
2022-12-05T19:06:05.554Z,3.03
2022-12-05T19:08:31.677Z,2.92
2022-12-05T19:10:57.888Z,3.40
2022-12-05T19:13:24.110Z,2.90
2022-12-05T19:15:50.309Z,3.63
2022-12-05T19:18:16.492Z,3.92
2022-12-05T19:20:42.670Z,3.47
2022-12-05T19:23:08.834Z,3.75
2022-12-05T19:25:34.957Z,3.70
2022-12-05T19:28:01.162Z,4.18
2022-12-05T19:30:27.350Z,3.08
2022-12-05T19:32:53.478Z,3.75
2022-12-05T19:35:19.645Z,3.83
2022-12-05T19:37:45.868Z,3.42
2022-12-05T19:40:12.115Z,2.90
2022-12-05T19:42:38.453Z,2.70
2022-12-05T19:45:12.348Z,3.20
2022-12-05T19:47:41.097Z,3.63
2022-12-05T19:50:07.281Z,3.30
2022-12-05T19:52:33.506Z,3.45
2022-12-05T19:54:59.721Z,3.42
2022-12-05T19:57:30.898Z,4.40
2022-12-05T19:59:57.668Z,4.25
2022-12-05T20:02:24.038Z,3.70
2022-12-05T20:04:50.283Z,3.15
2022-12-05T20:07:16.452Z,3.80
2022-12-05T20:09:42.609Z,4.50
2022-12-05T20:12:08.764Z,4.80
2022-12-05T20:14:34.964Z,6.05
2022-12-05T20:17:01.205Z,4.45
2022-12-05T20:19:27.428Z,5.18
2022-12-05T20:21:53.636Z,4.07
2022-12-05T20:24:19.815Z,3.90
2022-12-05T20:26:46.021Z,3.72
2022-12-05T20:29:12.220Z,4.32
2022-12-05T20:31:38.458Z,4.20
2022-12-05T20:34:04.676Z,3.92
2022-12-05T20:36:30.882Z,3.95
2022-12-05T20:38:57.081Z,4.07
2022-12-05T20:41:23.271Z,3.80
2022-12-05T20:43:49.390Z,3.50
2022-12-05T20:46:15.619Z,3.70
2022-12-05T20:48:41.928Z,3.45
2022-12-05T20:51:08.131Z,3.80
2022-12-05T20:53:34.247Z,3.80
2022-12-05T20:56:00.410Z,3.65
2022-12-05T20:58:26.588Z,3.78
2022-12-05T21:00:52.775Z,3.65
2022-12-05T21:03:18.959Z,4.47
2022-12-05T21:05:45.083Z,3.67
2022-12-05T21:08:11.302Z,4.35
2022-12-05T21:10:37.555Z,4.90
2022-12-05T21:13:03.709Z,5.22
2022-12-05T21:15:29.902Z,4.30
2022-12-05T21:17:56.098Z,4.10
2022-12-05T21:20:22.298Z,4.60
2022-12-05T21:22:48.466Z,5.05
2022-12-05T21:25:14.632Z,5.15
2022-12-05T21:27:40.796Z,5.05
2022-12-05T21:30:07.003Z,4.93
2022-12-05T21:32:33.202Z,4.78
2022-12-05T21:34:59.358Z,4.68
2022-12-05T21:37:25.619Z,4.90
2022-12-05T21:39:51.816Z,4.28
2022-12-05T21:42:17.994Z,4.20
2022-12-05T21:44:44.190Z,4.35
2022-12-05T21:47:10.353Z,4.15
2022-12-05T21:49:36.515Z,4.53
2022-12-05T21:52:02.752Z,4.10
2022-12-05T21:54:28.998Z,4.47
2022-12-05T21:56:55.240Z,4.68
2022-12-05T21:59:21.376Z,5.85
2022-12-05T22:01:47.561Z,4.60
2022-12-05T22:04:13.735Z,4.82
2022-12-05T22:06:39.943Z,5.15
2022-12-05T22:09:06.121Z,5.05
2022-12-05T22:11:32.286Z,4.53
2022-12-05T22:13:58.421Z,4.95
2022-12-05T22:16:32.167Z,5.18
2022-12-05T22:18:59.214Z,5.28
2022-12-05T22:21:25.411Z,4.68
2022-12-05T22:23:51.553Z,4.40
2022-12-05T22:26:17.742Z,5.00
2022-12-05T22:28:43.902Z,4.57
2022-12-05T22:31:10.178Z,5.05
2022-12-05T22:33:36.455Z,4.45
2022-12-05T22:36:02.570Z,5.32
2022-12-05T22:38:28.716Z,4.82
2022-12-05T22:40:54.890Z,4.60
2022-12-05T22:43:21.031Z,5.80
2022-12-05T22:45:47.231Z,4.97
2022-12-05T22:48:13.374Z,5.00
2022-12-05T22:50:39.535Z,5.43
2022-12-05T22:53:05.694Z,5.47
2022-12-05T22:55:31.908Z,5.00
2022-12-05T22:57:58.070Z,5.20
2022-12-05T23:00:24.251Z,4.80
2022-12-05T23:02:50.500Z,5.13
2022-12-05T23:05:16.755Z,5.00
2022-12-05T23:07:42.956Z,4.65
2022-12-05T23:10:09.173Z,5.07
2022-12-05T23:12:35.352Z,4.90
2022-12-05T23:15:01.501Z,4.82
2022-12-05T23:17:27.671Z,5.38
2022-12-05T23:19:53.839Z,5.18
2022-12-05T23:22:20.022Z,5.18
2022-12-05T23:24:46.135Z,5.15
2022-12-05T23:27:12.261Z,5.20
2022-12-05T23:29:38.429Z,4.75
2022-12-05T23:32:04.546Z,5.15
2022-12-05T23:34:30.707Z,4.88
2022-12-05T23:36:56.852Z,4.40
2022-12-05T23:39:23.008Z,5.32
2022-12-05T23:41:49.187Z,4.80
2022-12-05T23:44:15.335Z,3.88
2022-12-05T23:46:41.574Z,4.63
2022-12-05T23:49:07.732Z,4.55
2022-12-05T23:51:33.931Z,4.38
2022-12-05T23:54:08.017Z,5.13
2022-12-05T23:56:43.233Z,4.63
2022-12-05T23:59:09.373Z,4.40
